RYR66LN EIDW-EGPH
Flight info
| Callsign | RYR66LN |
|---|---|
| Flight time | N/A |
| Altitude | 25000 |
| Route | ROTEV8E ROTEV P600 GIRVA |
| Aircraft | B38M/M-SDE1FGHILORVWXY/HB1 |
Departure
| Time | 2026-05-04 10:49 |
|---|---|
| Airport | Dublin Airport (EIDW) |
Arrival
| Time | N/A |
|---|---|
| Airport | Edinburgh Airport (EGPH) |
| Time | Latitude | Longitude | Altitude | Speed | Heading |
|---|---|---|---|---|---|
| 2026-05-04 10:16 | 53.42785 | -6.24686 | 213 ft | 0 kts | 327° |
| 2026-05-04 10:19 | 53.42785 | -6.24685 | 213 ft | 0 kts | 327° |
| 2026-05-04 10:37 | 53.42782 | -6.24682 | 218 ft | 2 kts | 327° |
| 2026-05-04 10:37 | 53.42767 | -6.24666 | 213 ft | 3 kts | 327° |
| 2026-05-04 10:37 | 53.42753 | -6.24652 | 218 ft | 3 kts | 346° |
| 2026-05-04 10:39 | 53.42698 | -6.24787 | 215 ft | 3 kts | 54° |
| 2026-05-04 10:39 | 53.42686 | -6.24814 | 213 ft | 3 kts | 54° |
| 2026-05-04 10:39 | 53.42677 | -6.24837 | 213 ft | 1 kts | 54° |
| 2026-05-04 10:40 | 53.42667 | -6.24858 | 213 ft | 3 kts | 53° |
| 2026-05-04 10:40 | 53.42654 | -6.24884 | 213 ft | 3 kts | 39° |
| 2026-05-04 10:40 | 53.42640 | -6.24897 | 213 ft | 3 kts | 353° |
| 2026-05-04 10:40 | 53.42630 | -6.24891 | 213 ft | 2 kts | 331° |
| 2026-05-04 10:41 | 53.42616 | -6.24877 | 213 ft | 1 kts | 331° |
| 2026-05-04 10:41 | 53.42614 | -6.24875 | 213 ft | 2 kts | 331° |
| 2026-05-04 10:44 | 53.42785 | -6.25071 | 218 ft | 21 kts | 302° |
| 2026-05-04 10:45 | 53.42772 | -6.25297 | 216 ft | 20 kts | 231° |
| 2026-05-04 10:45 | 53.42671 | -6.25462 | 214 ft | 21 kts | 224° |
| 2026-05-04 10:45 | 53.42561 | -6.25652 | 213 ft | 24 kts | 226° |
| 2026-05-04 10:45 | 53.42440 | -6.25855 | 213 ft | 26 kts | 226° |
| 2026-05-04 10:46 | 53.42312 | -6.26080 | 216 ft | 27 kts | 231° |
| 2026-05-04 10:46 | 53.42273 | -6.26391 | 213 ft | 29 kts | 274° |
| 2026-05-04 10:46 | 53.42288 | -6.26673 | 213 ft | 24 kts | 276° |
| 2026-05-04 10:46 | 53.42304 | -6.26963 | 213 ft | 26 kts | 275° |
| 2026-05-04 10:47 | 53.42321 | -6.27276 | 215 ft | 28 kts | 276° |
| 2026-05-04 10:47 | 53.42340 | -6.27611 | 215 ft | 30 kts | 275° |
| 2026-05-04 10:47 | 53.42358 | -6.27965 | 213 ft | 31 kts | 274° |
| 2026-05-04 10:47 | 53.42379 | -6.28328 | 218 ft | 28 kts | 275° |
| 2026-05-04 10:49 | 53.42034 | -6.25318 | 920 ft | 166 kts | 90° |
| 2026-05-04 10:49 | 53.41958 | -6.23316 | 1722 ft | 187 kts | 89° |
| 2026-05-04 10:50 | 53.41894 | -6.21122 | 2420 ft | 195 kts | 89° |
| 2026-05-04 10:51 | 53.43564 | -6.02898 | 7322 ft | 269 kts | 59° |
| 2026-05-04 10:52 | 53.44573 | -6.00244 | 8130 ft | 271 kts | 45° |
| 2026-05-04 10:52 | 53.46205 | -5.98622 | 8932 ft | 273 kts | 12° |
| 2026-05-04 10:52 | 53.48107 | -5.98430 | 9710 ft | 279 kts | 354° |
| 2026-05-04 10:54 | 53.63282 | -6.00662 | 14584 ft | 331 kts | 355° |
| 2026-05-04 10:54 | 53.65589 | -6.01005 | 15345 ft | 336 kts | 355° |
| 2026-05-04 10:56 | 53.82461 | -6.03527 | 20294 ft | 360 kts | 356° |
| 2026-05-04 10:56 | 53.84931 | -6.03899 | 20914 ft | 362 kts | 356° |
| 2026-05-04 10:56 | 53.87447 | -6.04278 | 21573 ft | 364 kts | 356° |
| 2026-05-04 10:57 | 53.90010 | -6.04666 | 22224 ft | 367 kts | 356° |
| 2026-05-04 10:57 | 53.92562 | -6.05052 | 22823 ft | 370 kts | 356° |
| 2026-05-04 10:57 | 53.95106 | -6.05438 | 23075 ft | 371 kts | 356° |
| 2026-05-04 10:57 | 53.97674 | -6.05829 | 23102 ft | 369 kts | 356° |
| 2026-05-04 10:58 | 54.00224 | -6.06217 | 23098 ft | 368 kts | 357° |
| 2026-05-04 10:58 | 54.02798 | -6.06031 | 23082 ft | 364 kts | 14° |
| 2026-05-04 10:58 | 54.05132 | -6.04548 | 23114 ft | 364 kts | 25° |
| 2026-05-04 10:58 | 54.07438 | -6.02775 | 23091 ft | 364 kts | 25° |
| 2026-05-04 10:59 | 54.09736 | -6.00963 | 23094 ft | 364 kts | 25° |
| 2026-05-04 10:59 | 54.12032 | -5.99123 | 23095 ft | 365 kts | 25° |
| 2026-05-04 10:59 | 54.14314 | -5.97271 | 23095 ft | 365 kts | 25° |
| 2026-05-04 10:59 | 54.16636 | -5.95372 | 23102 ft | 365 kts | 26° |
| 2026-05-04 11:00 | 54.18892 | -5.93523 | 23088 ft | 365 kts | 26° |
| 2026-05-04 11:01 | 54.34897 | -5.80316 | 23101 ft | 365 kts | 26° |
| 2026-05-04 11:02 | 54.37179 | -5.78425 | 23090 ft | 365 kts | 26° |
| 2026-05-04 11:02 | 54.39463 | -5.76527 | 23102 ft | 366 kts | 25° |
| 2026-05-04 11:05 | 54.67688 | -5.47398 | 23099 ft | 329 kts | 40° |
| 2026-05-04 11:06 | 54.69407 | -5.44794 | 23102 ft | 328 kts | 40° |
| 2026-05-04 11:06 | 54.71103 | -5.42218 | 23011 ft | 327 kts | 40° |
| 2026-05-04 11:06 | 54.72910 | -5.39473 | 22266 ft | 335 kts | 40° |
| 2026-05-04 11:06 | 54.74624 | -5.36864 | 21565 ft | 342 kts | 40° |
| 2026-05-04 11:08 | 54.87338 | -5.17417 | 17181 ft | 325 kts | 40° |
| 2026-05-04 11:10 | 55.00768 | -5.05137 | 14865 ft | 303 kts | 24° |
| 2026-05-04 11:12 | 55.13746 | -4.93838 | 12594 ft | 290 kts | 24° |
| 2026-05-04 11:12 | 55.15538 | -4.92272 | 12301 ft | 287 kts | 24° |
| 2026-05-04 11:12 | 55.17303 | -4.90644 | 12073 ft | 288 kts | 32° |
| 2026-05-04 11:12 | 55.18685 | -4.88093 | 11916 ft | 294 kts | 58° |
| 2026-05-04 11:13 | 55.19504 | -4.84789 | 11860 ft | 297 kts | 67° |
| 2026-05-04 11:13 | 55.20248 | -4.81406 | 11797 ft | 298 kts | 67° |
| 2026-05-04 11:13 | 55.20982 | -4.78009 | 11715 ft | 298 kts | 68° |
| 2026-05-04 11:13 | 55.21706 | -4.74604 | 11624 ft | 298 kts | 68° |
| 2026-05-04 11:14 | 55.22424 | -4.71201 | 11540 ft | 297 kts | 68° |
| 2026-05-04 11:14 | 55.23135 | -4.67813 | 11452 ft | 296 kts | 68° |
| 2026-05-04 11:14 | 55.23845 | -4.64411 | 11373 ft | 297 kts | 68° |
| 2026-05-04 11:16 | 55.28683 | -4.41152 | 10716 ft | 294 kts | 68° |